Pagrindinis puslapis
METAR-TAF:

METAR-TAF

Oro uostai :

Nörvenich, Vokietija

platuma: 50-50N, ilguma: 006-40E, Aukštis: 118 m

Dabartinis oras

Ataskaita buvo paskelbta 58 minutes, ne 19:20 UTC
Vėjas 3 kt iš Rytų/Pietryčių
Temperatūra 14°C
Drėgmė 47%
Slėgis 1025 hPa
Matomumas 10 km arba daugiau
Mažai debesys ne aukštis 36000 ft

METAR: ETNN 201920Z 12003KT 9999 FEW360 14/03 Q1025 BLU+

Laikas: 22:18 (20:18 UTC)

Prognozė

Ataskaita buvo paskelbta 10 valandos ir 13 minutes, ne 10:05 UTC
Prognozė galioja nuo 20 metu 08 UTC su 20 metu 17 UTC
Vėjas 5 kt iš Rytų
Matomumas 10 km arba daugiau
Išsisklaidę debesys ne aukštis 35000 ft

TAF: ETNN 201005Z 2008/2017 10005KT 9999 NSW SCT350 CANCEL BY ETGL

Orai ataskaitas ir orų prognozės (METAR, TAF).

turimą stotys yra geltonos ir raudonos taškus žemėlapyje.

Perkelti pele per norėdami pamatyti stoties vardą.

Tada spustelėkite, norėdami matyti oro stebėjimo ir prognozės.

Norėdami pakeisti žemėlapį: spustelėkite ant žalios mygtukų su juodo kryžiaus žemyn,; žalią mygtuką su brūkšneliu, jei norite nutolinti; arba žalių rodyklių gretimoms žemėlapius.


METAR-TAF: